createdAt,value
2018-01-30T00:01:05.359Z,6.78
2018-01-30T00:03:32.847Z,6.79
2018-01-30T00:06:00.336Z,6.80
2018-01-30T00:08:27.835Z,6.80
2018-01-30T00:10:55.338Z,6.81
2018-01-30T00:13:22.843Z,6.77
2018-01-30T00:15:50.347Z,6.76
2018-01-30T00:18:17.826Z,6.74
2018-01-30T00:20:45.388Z,6.70
2018-01-30T00:23:12.879Z,6.68
2018-01-30T00:25:40.353Z,6.63
2018-01-30T00:28:07.860Z,6.61
2018-01-30T00:30:35.363Z,6.59
2018-01-30T00:33:02.883Z,6.56
2018-01-30T00:35:30.363Z,6.56
2018-01-30T00:37:57.864Z,6.51
2018-01-30T00:40:25.340Z,6.46
2018-01-30T00:42:52.812Z,6.46
2018-01-30T00:45:20.357Z,6.46
2018-01-30T00:47:47.865Z,6.44
2018-01-30T00:50:15.371Z,6.44
2018-01-30T00:52:42.846Z,6.42
2018-01-30T00:55:10.332Z,6.38
2018-01-30T00:57:37.823Z,6.35
2018-01-30T01:00:05.317Z,6.30
2018-01-30T01:02:32.802Z,6.25
2018-01-30T01:05:00.308Z,6.26
2018-01-30T01:07:27.821Z,6.26
2018-01-30T01:09:55.299Z,6.24
2018-01-30T01:12:22.795Z,6.21
2018-01-30T01:14:50.267Z,6.20
2018-01-30T01:17:17.751Z,6.19
2018-01-30T01:19:45.236Z,6.14
2018-01-30T01:22:12.703Z,6.14
2018-01-30T01:24:40.195Z,6.15
2018-01-30T01:27:07.675Z,6.13
2018-01-30T01:29:35.159Z,6.12
2018-01-30T01:32:02.601Z,6.10
2018-01-30T01:34:30.183Z,6.08
2018-01-30T01:36:57.651Z,6.08
2018-01-30T01:39:25.124Z,6.06
2018-01-30T01:41:52.603Z,6.03
2018-01-30T01:44:20.084Z,6.00
2018-01-30T01:46:47.563Z,5.95
2018-01-30T01:49:15.075Z,5.89
2018-01-30T01:51:42.556Z,5.88
2018-01-30T01:54:10.039Z,5.90
2018-01-30T01:56:37.633Z,5.92
2018-01-30T01:59:05.111Z,5.92
2018-01-30T02:01:32.590Z,5.94
2018-01-30T02:04:00.075Z,5.95
2018-01-30T02:06:27.567Z,5.92
2018-01-30T02:08:55.078Z,5.88
2018-01-30T02:11:22.573Z,5.87
2018-01-30T02:13:50.095Z,5.87
2018-01-30T02:16:17.574Z,5.87
2018-01-30T02:18:45.053Z,5.87
2018-01-30T02:21:12.559Z,5.87
2018-01-30T02:23:40.054Z,5.87
2018-01-30T02:26:07.553Z,5.86
2018-01-30T02:28:35.043Z,5.82
2018-01-30T02:31:02.545Z,5.77
2018-01-30T02:33:30.042Z,5.75
2018-01-30T02:35:57.525Z,5.75
2018-01-30T02:38:25.017Z,5.73
2018-01-30T02:40:52.516Z,5.67
2018-01-30T02:43:19.999Z,5.62
2018-01-30T02:45:47.577Z,5.60
2018-01-30T02:48:15.075Z,5.52
2018-01-30T02:50:42.613Z,5.54
2018-01-30T02:53:10.089Z,5.53
2018-01-30T02:55:37.564Z,5.52
2018-01-30T02:58:05.048Z,5.50
2018-01-30T03:00:32.551Z,5.49
2018-01-30T03:03:00.015Z,5.49
2018-01-30T03:05:27.499Z,5.48
2018-01-30T03:07:54.978Z,5.46
2018-01-30T03:10:22.471Z,5.40
2018-01-30T03:12:49.943Z,5.38
2018-01-30T03:15:17.434Z,5.37
2018-01-30T03:17:44.922Z,5.37
2018-01-30T03:20:12.424Z,5.38
2018-01-30T03:22:40.074Z,5.40
2018-01-30T03:25:07.555Z,5.38
2018-01-30T03:27:35.034Z,5.37
2018-01-30T03:30:02.543Z,5.35
2018-01-30T03:32:30.030Z,5.32
2018-01-30T03:34:57.513Z,5.31
2018-01-30T03:37:24.994Z,5.33
2018-01-30T03:39:52.476Z,5.31
2018-01-30T03:42:19.954Z,5.29
2018-01-30T03:44:47.423Z,5.27
2018-01-30T03:47:14.924Z,5.24
2018-01-30T03:49:42.409Z,5.24
2018-01-30T03:52:09.888Z,5.21
2018-01-30T03:54:37.358Z,5.19
2018-01-30T03:57:04.844Z,5.21
2018-01-30T03:59:32.334Z,5.20
2018-01-30T04:01:59.807Z,5.17
2018-01-30T04:04:27.271Z,5.17
2018-01-30T04:06:54.750Z,5.17
2018-01-30T04:09:22.214Z,5.15
2018-01-30T04:11:49.669Z,5.14
2018-01-30T04:14:17.168Z,5.11
2018-01-30T04:16:44.648Z,5.09
2018-01-30T04:19:12.147Z,5.08
2018-01-30T04:21:39.617Z,5.05
2018-01-30T04:24:07.090Z,5.01
2018-01-30T04:26:34.580Z,4.98
2018-01-30T04:29:02.067Z,4.99
2018-01-30T04:31:29.536Z,4.98
2018-01-30T04:33:57.066Z,4.98
2018-01-30T04:36:24.584Z,4.95
2018-01-30T04:38:52.067Z,4.94
2018-01-30T04:41:19.539Z,4.93
2018-01-30T04:43:47.022Z,4.89
2018-01-30T04:46:14.492Z,4.88
2018-01-30T04:48:41.971Z,4.87
2018-01-30T04:51:09.455Z,4.84
2018-01-30T04:53:36.939Z,4.85
2018-01-30T04:56:04.445Z,4.84
2018-01-30T04:58:31.958Z,4.85
2018-01-30T05:00:59.430Z,4.83
2018-01-30T05:03:26.914Z,4.81
2018-01-30T05:05:54.403Z,4.82
2018-01-30T05:08:21.852Z,4.78
2018-01-30T05:10:49.351Z,4.78
2018-01-30T05:13:16.816Z,4.77
2018-01-30T05:15:44.338Z,4.72
2018-01-30T05:18:11.834Z,4.70
2018-01-30T05:20:39.306Z,4.70
2018-01-30T05:23:06.813Z,4.72
2018-01-30T05:25:34.307Z,4.72
2018-01-30T05:28:01.780Z,4.68
2018-01-30T05:30:29.279Z,4.68
2018-01-30T05:32:56.728Z,4.68
2018-01-30T05:35:24.290Z,4.67
2018-01-30T05:37:51.778Z,4.64
2018-01-30T05:40:20.122Z,4.66
2018-01-30T05:42:47.595Z,4.65
2018-01-30T05:45:15.079Z,4.63
2018-01-30T05:47:42.572Z,4.62
2018-01-30T05:50:10.059Z,4.60
2018-01-30T05:52:37.544Z,4.60
2018-01-30T05:55:05.010Z,4.61
2018-01-30T05:57:32.495Z,4.60
2018-01-30T06:00:00.057Z,4.56
2018-01-30T06:02:27.530Z,4.52
2018-01-30T06:04:55.007Z,4.47
2018-01-30T06:07:22.493Z,4.45
2018-01-30T06:09:49.966Z,4.44
2018-01-30T06:12:17.445Z,4.45
2018-01-30T06:14:44.932Z,4.47
2018-01-30T06:17:12.431Z,4.48
2018-01-30T06:19:39.894Z,4.48
2018-01-30T06:22:07.422Z,4.45
2018-01-30T06:24:34.939Z,4.46
2018-01-30T06:27:02.423Z,4.43
2018-01-30T06:29:30.752Z,4.42
2018-01-30T06:31:58.259Z,4.40
2018-01-30T06:34:25.727Z,4.43
2018-01-30T06:36:53.211Z,4.39
2018-01-30T06:39:20.701Z,4.40
2018-01-30T06:41:48.179Z,4.41
2018-01-30T06:44:15.669Z,4.39
2018-01-30T06:46:43.170Z,4.39
2018-01-30T06:49:10.640Z,4.37
2018-01-30T06:51:39.318Z,4.28
2018-01-30T06:54:06.802Z,4.29
2018-01-30T06:56:34.307Z,4.31
2018-01-30T06:59:01.810Z,4.32
2018-01-30T07:01:29.279Z,4.29
2018-01-30T07:03:56.754Z,4.31
2018-01-30T07:06:24.230Z,4.31
2018-01-30T07:08:51.723Z,4.29
2018-01-30T07:11:19.215Z,4.18
2018-01-30T07:13:46.696Z,4.14
2018-01-30T07:16:14.195Z,4.14
2018-01-30T07:18:41.686Z,4.12
2018-01-30T07:21:09.166Z,4.14
2018-01-30T07:23:36.649Z,4.12
2018-01-30T07:26:04.160Z,4.14
2018-01-30T07:28:31.653Z,4.15
2018-01-30T07:30:59.151Z,4.20
2018-01-30T07:33:26.640Z,4.23
2018-01-30T07:35:54.115Z,4.26
2018-01-30T07:38:21.664Z,4.31
2018-01-30T07:40:49.155Z,4.34
2018-01-30T07:43:16.644Z,4.39
2018-01-30T07:45:44.143Z,4.47
2018-01-30T07:48:11.632Z,4.54
2018-01-30T07:50:39.149Z,4.61
2018-01-30T07:53:06.632Z,4.64
2018-01-30T07:55:34.107Z,4.68
2018-01-30T07:58:01.619Z,4.75
2018-01-30T08:00:29.488Z,4.82
2018-01-30T08:02:56.987Z,4.86
2018-01-30T08:05:24.458Z,4.93
2018-01-30T08:07:51.939Z,5.00
2018-01-30T08:10:19.413Z,5.05
2018-01-30T08:12:46.892Z,5.15
2018-01-30T08:15:14.363Z,5.21
2018-01-30T08:17:41.847Z,5.26
2018-01-30T08:20:09.360Z,5.34
2018-01-30T08:22:36.846Z,5.34
2018-01-30T08:25:04.398Z,5.37
2018-01-30T08:27:31.889Z,5.41
2018-01-30T08:29:59.387Z,5.49
2018-01-30T08:32:26.899Z,5.57
2018-01-30T08:34:54.461Z,5.62
2018-01-30T08:37:21.953Z,5.66
2018-01-30T08:39:49.443Z,5.65
2018-01-30T08:42:17.005Z,5.62
2018-01-30T08:44:44.540Z,5.61
2018-01-30T08:47:12.049Z,5.64
2018-01-30T08:49:39.543Z,5.68
2018-01-30T08:52:07.047Z,5.71
2018-01-30T08:54:34.529Z,5.76
2018-01-30T08:57:02.023Z,5.77
2018-01-30T08:59:29.498Z,5.82
2018-01-30T09:01:57.199Z,5.85
2018-01-30T09:04:24.698Z,5.86
2018-01-30T09:06:52.186Z,5.87
2018-01-30T09:09:19.756Z,5.92
2018-01-30T09:11:47.282Z,5.96
2018-01-30T09:14:14.782Z,5.92
2018-01-30T09:16:42.303Z,5.93
2018-01-30T09:19:09.867Z,5.93
2018-01-30T09:21:37.352Z,5.92
2018-01-30T09:24:04.795Z,5.93
2018-01-30T09:26:32.322Z,5.96
2018-01-30T09:28:59.807Z,5.96
2018-01-30T09:31:27.287Z,5.99
2018-01-30T09:33:54.827Z,6.07
2018-01-30T09:36:22.314Z,6.14
2018-01-30T09:38:49.806Z,6.20
2018-01-30T09:41:17.279Z,6.33
2018-01-30T09:43:44.766Z,6.46
2018-01-30T09:46:12.235Z,6.56
2018-01-30T09:48:39.737Z,6.58
2018-01-30T09:51:07.215Z,6.64
2018-01-30T09:53:34.775Z,6.70
2018-01-30T09:56:02.256Z,6.75
2018-01-30T09:58:29.764Z,6.80
2018-01-30T10:00:57.243Z,6.88
2018-01-30T10:03:24.740Z,6.97
2018-01-30T10:05:52.233Z,7.08
2018-01-30T10:08:19.720Z,7.12
2018-01-30T10:10:47.215Z,7.17
2018-01-30T10:13:14.705Z,7.22
2018-01-30T10:15:42.196Z,7.22
2018-01-30T10:18:09.698Z,7.22
2018-01-30T10:20:37.238Z,7.24
2018-01-30T10:23:04.742Z,7.26
2018-01-30T10:25:32.223Z,7.28
2018-01-30T10:27:59.703Z,7.26
2018-01-30T10:30:27.179Z,7.27
2018-01-30T10:32:54.687Z,7.26
2018-01-30T10:35:22.171Z,7.30
2018-01-30T10:37:49.656Z,7.30
2018-01-30T10:40:17.178Z,7.37
2018-01-30T10:42:44.671Z,7.40
2018-01-30T10:45:12.188Z,7.47
2018-01-30T10:47:39.704Z,7.50
2018-01-30T10:50:07.245Z,7.47
2018-01-30T10:52:34.715Z,7.54
2018-01-30T10:55:02.223Z,7.61
2018-01-30T10:57:29.709Z,7.64
2018-01-30T10:59:57.213Z,7.62
2018-01-30T11:02:24.698Z,7.64
2018-01-30T11:04:52.202Z,7.69
2018-01-30T11:07:19.689Z,7.61
2018-01-30T11:09:47.183Z,7.64
2018-01-30T11:12:14.674Z,7.76
2018-01-30T11:14:42.211Z,7.69
2018-01-30T11:17:09.696Z,7.63
2018-01-30T11:19:37.196Z,7.76
2018-01-30T11:22:04.696Z,7.78
2018-01-30T11:24:32.230Z,7.83
2018-01-30T11:26:59.725Z,7.93
2018-01-30T11:29:27.229Z,7.99
2018-01-30T11:31:54.763Z,8.03
2018-01-30T11:34:22.250Z,8.09
2018-01-30T11:36:49.750Z,8.08
2018-01-30T11:39:17.243Z,8.26
2018-01-30T11:41:44.811Z,8.39
2018-01-30T11:44:12.291Z,8.56
2018-01-30T11:46:39.780Z,8.68
2018-01-30T11:49:07.336Z,8.82
2018-01-30T11:51:34.830Z,8.92
2018-01-30T11:54:02.313Z,8.97
2018-01-30T11:56:29.836Z,9.05
2018-01-30T11:58:57.343Z,9.10
2018-01-30T12:01:24.820Z,9.20
2018-01-30T12:03:52.321Z,9.30
2018-01-30T12:06:19.810Z,9.47
2018-01-30T12:08:47.298Z,9.59
2018-01-30T12:11:14.799Z,9.62
2018-01-30T12:13:42.319Z,9.62
2018-01-30T12:16:09.840Z,9.60
2018-01-30T12:18:37.340Z,9.67
2018-01-30T12:21:04.829Z,9.71
2018-01-30T12:23:32.328Z,9.71
2018-01-30T12:25:59.833Z,9.87
2018-01-30T12:28:27.335Z,9.89
2018-01-30T12:30:54.868Z,9.93
2018-01-30T12:33:22.338Z,10.05
2018-01-30T12:35:49.840Z,10.09
2018-01-30T12:38:17.333Z,9.98
2018-01-30T12:40:44.851Z,10.07
2018-01-30T12:43:12.374Z,10.06
2018-01-30T12:45:39.867Z,10.07
2018-01-30T12:48:07.418Z,10.11
2018-01-30T12:50:34.907Z,10.16
2018-01-30T12:53:02.423Z,10.20
2018-01-30T12:55:29.933Z,10.29
2018-01-30T12:57:57.458Z,10.35
2018-01-30T13:00:24.950Z,10.44
2018-01-30T13:02:52.455Z,10.47
2018-01-30T13:05:19.939Z,10.56
2018-01-30T13:07:47.438Z,10.65
2018-01-30T13:10:14.941Z,10.68
2018-01-30T13:12:42.450Z,10.70
2018-01-30T13:15:09.929Z,10.72
2018-01-30T13:17:37.411Z,10.70
2018-01-30T13:20:04.896Z,10.72
2018-01-30T13:22:32.427Z,10.70
2018-01-30T13:24:59.907Z,10.70
2018-01-30T13:27:27.507Z,10.71
2018-01-30T13:29:54.991Z,10.66
2018-01-30T13:32:22.471Z,10.64
2018-01-30T13:34:49.958Z,10.53
2018-01-30T13:37:17.572Z,10.55
2018-01-30T13:39:45.063Z,10.39
2018-01-30T13:42:12.579Z,10.30
2018-01-30T13:44:40.179Z,10.39
2018-01-30T13:47:07.706Z,10.35
2018-01-30T13:49:35.190Z,10.27
2018-01-30T13:52:02.710Z,10.19
2018-01-30T13:54:30.190Z,10.11
2018-01-30T13:56:57.671Z,10.12
2018-01-30T13:59:25.179Z,10.06
2018-01-30T14:01:52.672Z,10.01
2018-01-30T14:04:20.148Z,9.98
2018-01-30T14:06:47.656Z,9.94
2018-01-30T14:09:15.147Z,9.93
2018-01-30T14:11:42.635Z,9.92
2018-01-30T14:14:10.109Z,9.90
2018-01-30T14:16:37.607Z,9.87
2018-01-30T14:19:05.087Z,9.89
2018-01-30T14:21:32.600Z,9.92
2018-01-30T14:24:00.109Z,9.90
2018-01-30T14:26:27.596Z,9.86
2018-01-30T14:28:55.156Z,9.83
2018-01-30T14:31:22.634Z,9.78
2018-01-30T14:33:50.116Z,9.72
2018-01-30T14:36:17.631Z,9.71
2018-01-30T14:38:45.092Z,9.63
2018-01-30T14:41:12.611Z,9.51
2018-01-30T14:43:40.125Z,9.52
2018-01-30T14:46:07.643Z,9.56
2018-01-30T14:48:35.136Z,9.56
2018-01-30T14:51:02.607Z,9.58
2018-01-30T14:53:30.095Z,9.60
2018-01-30T14:55:57.580Z,9.58
2018-01-30T14:58:25.119Z,9.57
2018-01-30T15:00:52.637Z,9.58
2018-01-30T15:03:20.175Z,9.58
2018-01-30T15:05:47.752Z,9.60
2018-01-30T15:08:15.251Z,9.61
2018-01-30T15:10:42.754Z,9.62
2018-01-30T15:13:10.271Z,9.61
2018-01-30T15:15:38.876Z,9.56
2018-01-30T15:18:06.977Z,9.54
2018-01-30T15:20:34.486Z,9.54
2018-01-30T15:23:01.993Z,9.50
2018-01-30T15:25:29.482Z,9.50
2018-01-30T15:27:56.976Z,9.38
2018-01-30T15:30:24.534Z,9.24
2018-01-30T15:32:52.071Z,9.31
2018-01-30T15:35:19.566Z,9.28
2018-01-30T15:37:47.057Z,9.28
2018-01-30T15:40:14.555Z,9.27
2018-01-30T15:42:42.045Z,9.25
2018-01-30T15:45:09.547Z,9.24
2018-01-30T15:47:37.018Z,9.26
2018-01-30T15:50:04.540Z,9.22
2018-01-30T15:52:32.031Z,9.20
2018-01-30T15:54:59.550Z,9.21
2018-01-30T15:57:27.054Z,9.17
2018-01-30T15:59:54.600Z,9.18
2018-01-30T16:02:22.077Z,9.18
2018-01-30T16:04:49.568Z,9.19
2018-01-30T16:07:17.090Z,9.21
2018-01-30T16:09:44.571Z,9.20
2018-01-30T16:12:12.061Z,9.23
2018-01-30T16:14:39.563Z,9.25
2018-01-30T16:17:07.059Z,9.22
2018-01-30T16:19:34.546Z,9.22
2018-01-30T16:22:02.090Z,9.25
2018-01-30T16:24:29.576Z,9.25
2018-01-30T16:26:57.075Z,9.25
2018-01-30T16:29:24.672Z,9.25
2018-01-30T16:31:52.172Z,9.23
2018-01-30T16:34:19.695Z,9.22
2018-01-30T16:36:47.211Z,9.26
2018-01-30T16:39:14.737Z,9.27
2018-01-30T16:41:42.262Z,9.26
2018-01-30T16:44:09.781Z,9.26
2018-01-30T16:46:37.283Z,9.28
2018-01-30T16:49:04.774Z,9.24
2018-01-30T16:51:32.275Z,9.28
2018-01-30T16:53:59.760Z,9.31
2018-01-30T16:56:27.234Z,9.32
2018-01-30T16:58:54.868Z,9.27
2018-01-30T17:01:22.371Z,9.32
2018-01-30T17:03:49.873Z,9.33
2018-01-30T17:06:17.379Z,9.34
2018-01-30T17:08:44.957Z,9.35
2018-01-30T17:11:12.477Z,9.34
2018-01-30T17:13:40.005Z,9.31
2018-01-30T17:16:07.550Z,9.37
2018-01-30T17:18:35.090Z,9.43
2018-01-30T17:21:02.612Z,9.44
2018-01-30T17:23:30.138Z,9.46
2018-01-30T17:25:57.662Z,9.48
2018-01-30T17:28:25.223Z,9.51
2018-01-30T17:30:52.719Z,9.54
2018-01-30T17:33:20.203Z,9.57
2018-01-30T17:35:47.703Z,9.61
2018-01-30T17:38:15.310Z,9.63
2018-01-30T17:40:42.794Z,9.66
2018-01-30T17:43:11.164Z,9.68
2018-01-30T17:45:38.656Z,9.71
2018-01-30T17:48:06.155Z,9.73
2018-01-30T17:50:33.657Z,9.76
2018-01-30T17:53:01.165Z,9.78
2018-01-30T17:55:28.739Z,9.82
2018-01-30T17:57:56.219Z,9.82
2018-01-30T18:00:23.733Z,9.82
2018-01-30T18:02:51.259Z,9.86
2018-01-30T18:05:18.776Z,9.89
2018-01-30T18:07:46.283Z,9.92
2018-01-30T18:10:13.815Z,9.95
2018-01-30T18:12:41.317Z,9.99
2018-01-30T18:15:08.851Z,10.04
2018-01-30T18:17:36.385Z,10.09
2018-01-30T18:20:03.955Z,10.09
2018-01-30T18:22:31.465Z,10.14
2018-01-30T18:24:59.088Z,10.15
2018-01-30T18:27:26.599Z,10.18
2018-01-30T18:29:54.104Z,10.31
2018-01-30T18:32:21.596Z,10.51
2018-01-30T18:34:49.125Z,10.65
2018-01-30T18:37:16.664Z,10.85
2018-01-30T18:39:44.156Z,10.94
2018-01-30T18:42:11.665Z,10.87
2018-01-30T18:44:39.183Z,10.96
2018-01-30T18:47:07.253Z,11.10
2018-01-30T18:49:35.563Z,11.23
2018-01-30T18:52:04.966Z,11.16
2018-01-30T18:54:38.366Z,11.24
2018-01-30T18:57:06.232Z,11.17
2018-01-30T18:59:33.775Z,11.24
2018-01-30T19:02:01.379Z,11.46
2018-01-30T19:04:28.931Z,11.35
2018-01-30T19:06:56.611Z,11.32
2018-01-30T19:09:24.203Z,11.28
2018-01-30T19:11:51.732Z,11.46
2018-01-30T19:14:20.070Z,11.40
2018-01-30T19:16:47.661Z,11.33
2018-01-30T19:19:16.153Z,11.42
2018-01-30T19:21:44.200Z,11.34
2018-01-30T19:24:11.699Z,11.45
2018-01-30T19:26:39.240Z,11.43
2018-01-30T19:29:06.784Z,11.41
2018-01-30T19:31:34.288Z,11.41
2018-01-30T19:34:01.836Z,11.49
2018-01-30T19:36:29.356Z,11.45
2018-01-30T19:39:00.596Z,11.42
2018-01-30T19:41:28.115Z,11.40
2018-01-30T19:43:55.615Z,11.60
2018-01-30T19:46:23.179Z,11.71
2018-01-30T19:48:50.776Z,11.55
2018-01-30T19:51:18.277Z,11.82
2018-01-30T19:53:45.809Z,11.68
2018-01-30T19:56:13.332Z,11.74
2018-01-30T19:58:40.863Z,11.52
2018-01-30T20:01:08.409Z,11.61
2018-01-30T20:03:35.992Z,11.60
2018-01-30T20:06:03.501Z,11.64
2018-01-30T20:08:31.000Z,11.67
2018-01-30T20:10:58.506Z,11.70
2018-01-30T20:13:26.038Z,11.77
2018-01-30T20:15:53.524Z,11.77
2018-01-30T20:18:21.041Z,11.80
2018-01-30T20:20:48.558Z,11.77
2018-01-30T20:23:16.063Z,11.68
2018-01-30T20:25:43.551Z,11.68
2018-01-30T20:28:11.054Z,11.64
2018-01-30T20:30:38.610Z,11.64
2018-01-30T20:33:06.090Z,11.75
2018-01-30T20:35:33.587Z,11.77
2018-01-30T20:38:01.094Z,11.74
2018-01-30T20:40:28.586Z,11.84
2018-01-30T20:42:57.166Z,11.77
2018-01-30T20:45:24.653Z,11.58
2018-01-30T20:47:52.150Z,11.63
2018-01-30T20:50:19.698Z,11.60
2018-01-30T20:52:47.202Z,11.68
2018-01-30T20:55:14.712Z,11.58
2018-01-30T20:57:42.235Z,11.73
2018-01-30T21:00:09.728Z,11.76
2018-01-30T21:02:37.203Z,11.76
2018-01-30T21:05:04.710Z,11.69
2018-01-30T21:07:32.207Z,11.86
2018-01-30T21:09:59.686Z,11.70
2018-01-30T21:12:27.170Z,11.65
2018-01-30T21:14:54.703Z,11.61
2018-01-30T21:17:22.203Z,11.51
2018-01-30T21:19:49.695Z,11.63
2018-01-30T21:22:17.203Z,11.62
2018-01-30T21:24:44.703Z,11.72
2018-01-30T21:27:12.206Z,11.74
2018-01-30T21:29:39.750Z,11.68
2018-01-30T21:32:07.315Z,11.56
2018-01-30T21:34:34.847Z,11.72
2018-01-30T21:37:02.335Z,11.66
2018-01-30T21:39:29.845Z,11.50
2018-01-30T21:41:57.343Z,11.46
2018-01-30T21:44:24.835Z,11.51
2018-01-30T21:46:52.339Z,11.68
2018-01-30T21:49:19.842Z,11.47
2018-01-30T21:51:47.370Z,11.69
2018-01-30T21:54:18.431Z,11.58
2018-01-30T21:56:42.363Z,11.68
2018-01-30T21:59:09.871Z,11.54
2018-01-30T22:01:37.386Z,11.46
2018-01-30T22:04:04.863Z,11.56
2018-01-30T22:06:32.344Z,11.60
2018-01-30T22:08:59.868Z,11.63
2018-01-30T22:11:27.363Z,11.52
2018-01-30T22:13:54.866Z,11.62
2018-01-30T22:16:22.383Z,11.56
2018-01-30T22:18:49.934Z,11.47
2018-01-30T22:21:17.434Z,11.64
2018-01-30T22:23:44.930Z,11.71
2018-01-30T22:26:12.442Z,11.86
2018-01-30T22:28:39.933Z,11.65
2018-01-30T22:31:07.414Z,11.65
2018-01-30T22:33:34.924Z,11.62
2018-01-30T22:36:02.427Z,11.61
2018-01-30T22:38:29.922Z,11.66
2018-01-30T22:40:57.415Z,11.50
2018-01-30T22:43:24.918Z,11.52
2018-01-30T22:45:52.415Z,11.46
